sensor_id;sensor_type;location;lat;lon;timestamp;pressure;altitude;pressure_sealevel;temperature;humidity
69528;BME280;57136;51.986;4.468;2022-09-03T00:01:42;101169.31;;;19.49;48.20
69528;BME280;57136;51.986;4.468;2022-09-03T00:04:16;101166.69;;;19.49;48.47
69528;BME280;57136;51.986;4.468;2022-09-03T00:06:59;101158.66;;;19.20;48.99
69528;BME280;57136;51.986;4.468;2022-09-03T00:09:39;101157.75;;;19.20;48.78
69528;BME280;57136;51.986;4.468;2022-09-03T00:12:14;101154.81;;;19.32;48.63
69528;BME280;57136;51.986;4.468;2022-09-03T00:14:49;101152.09;;;19.35;49.40
69528;BME280;57136;51.986;4.468;2022-09-03T00:17:19;101150.81;;;19.17;48.96
69528;BME280;57136;51.986;4.468;2022-09-03T00:19:56;101145.16;;;19.31;48.56
69528;BME280;57136;51.986;4.468;2022-09-03T00:22:28;101140.97;;;19.22;48.79
69528;BME280;57136;51.986;4.468;2022-09-03T00:24:57;101139.94;;;19.28;48.91
69528;BME280;57136;51.986;4.468;2022-09-03T00:27:26;101132.88;;;19.28;48.94
69528;BME280;57136;51.986;4.468;2022-09-03T00:29:57;101136.13;;;19.38;48.65
69528;BME280;57136;51.986;4.468;2022-09-03T00:32:53;101142.50;;;19.31;49.17
69528;BME280;57136;51.986;4.468;2022-09-03T00:35:47;101135.31;;;19.36;48.47
69528;BME280;57136;51.986;4.468;2022-09-03T00:38:14;101144.19;;;19.34;48.92
69528;BME280;57136;51.986;4.468;2022-09-03T00:41:01;101144.31;;;19.29;48.98
69528;BME280;57136;51.986;4.468;2022-09-03T00:46:25;101144.16;;;19.35;49.45
69528;BME280;57136;51.986;4.468;2022-09-03T00:54:06;101146.81;;;19.35;49.80
69528;BME280;57136;51.986;4.468;2022-09-03T00:57:19;101142.50;;;19.31;50.08
69528;BME280;57136;51.986;4.468;2022-09-03T00:59:56;101139.88;;;19.29;49.05
69528;BME280;57136;51.986;4.468;2022-09-03T01:02:50;101143.34;;;19.31;49.26
69528;BME280;57136;51.986;4.468;2022-09-03T01:10:45;101155.88;;;19.25;49.85
69528;BME280;57136;51.986;4.468;2022-09-03T01:13:49;101152.31;;;19.26;49.79
69528;BME280;57136;51.986;4.468;2022-09-03T01:22:12;101154.06;;;19.27;49.65
69528;BME280;57136;51.986;4.468;2022-09-03T01:30:18;101162.13;;;19.21;49.68
69528;BME280;57136;51.986;4.468;2022-09-03T01:32:52;101159.47;;;19.22;49.90
69528;BME280;57136;51.986;4.468;2022-09-03T01:35:34;101159.56;;;19.19;50.06
69528;BME280;57136;51.986;4.468;2022-09-03T01:46:09;101158.00;;;19.10;49.49
69528;BME280;57136;51.986;4.468;2022-09-03T01:51:24;101144.00;;;19.07;49.79
69528;BME280;57136;51.986;4.468;2022-09-03T01:56:49;101144.00;;;19.07;50.00
69528;BME280;57136;51.986;4.468;2022-09-03T01:59:31;101144.28;;;18.96;49.90
69528;BME280;57136;51.986;4.468;2022-09-03T02:02:02;101141.66;;;18.96;50.28
69528;BME280;57136;51.986;4.468;2022-09-03T02:04:30;101145.97;;;19.00;49.99
69528;BME280;57136;51.986;4.468;2022-09-03T02:06:58;101145.06;;;18.99;50.02
69528;BME280;57136;51.986;4.468;2022-09-03T02:09:25;101144.16;;;19.00;49.80
69528;BME280;57136;51.986;4.468;2022-09-03T02:12:20;101139.13;;;18.91;49.86
69528;BME280;57136;51.986;4.468;2022-09-03T02:14:45;101144.34;;;18.93;49.79
69528;BME280;57136;51.986;4.468;2022-09-03T02:17:11;101142.69;;;18.89;50.28
69528;BME280;57136;51.986;4.468;2022-09-03T02:19:37;101136.00;;;18.75;50.78
69528;BME280;57136;51.986;4.468;2022-09-03T02:22:03;101136.81;;;18.77;50.73
69528;BME280;57136;51.986;4.468;2022-09-03T02:24:29;101133.56;;;18.67;50.95
69528;BME280;57136;51.986;4.468;2022-09-03T02:26:55;101133.63;;;18.63;50.91
69528;BME280;57136;51.986;4.468;2022-09-03T02:29:21;101130.16;;;18.61;50.79
69528;BME280;57136;51.986;4.468;2022-09-03T02:31:48;101131.00;;;18.63;50.93
69528;BME280;57136;51.986;4.468;2022-09-03T02:34:13;101130.47;;;18.48;51.18
69528;BME280;57136;51.986;4.468;2022-09-03T02:36:44;101131.53;;;18.41;51.27
69528;BME280;57136;51.986;4.468;2022-09-03T02:39:10;101133.19;;;18.45;51.58
69528;BME280;57136;51.986;4.468;2022-09-03T02:41:36;101134.09;;;18.44;51.55
69528;BME280;57136;51.986;4.468;2022-09-03T02:44:08;101129.91;;;18.35;51.90
69528;BME280;57136;51.986;4.468;2022-09-03T02:46:47;101131.97;;;18.21;52.10
69528;BME280;57136;51.986;4.468;2022-09-03T02:49:14;101135.50;;;18.21;52.01
69528;BME280;57136;51.986;4.468;2022-09-03T02:51:41;101125.84;;;18.20;52.28
69528;BME280;57136;51.986;4.468;2022-09-03T02:54:08;101130.38;;;18.14;52.21
69528;BME280;57136;51.986;4.468;2022-09-03T02:56:35;101129.97;;;17.91;52.49
69528;BME280;57136;51.986;4.468;2022-09-03T02:59:03;101129.91;;;17.94;52.53
69528;BME280;57136;51.986;4.468;2022-09-03T03:01:29;101130.00;;;17.90;53.25
69528;BME280;57136;51.986;4.468;2022-09-03T03:03:54;101128.25;;;17.89;53.05
69528;BME280;57136;51.986;4.468;2022-09-03T03:06:20;101126.69;;;17.80;53.84
69528;BME280;57136;51.986;4.468;2022-09-03T03:08:47;101118.91;;;17.74;53.18
69528;BME280;57136;51.986;4.468;2022-09-03T03:11:12;101119.63;;;17.82;53.15
69528;BME280;57136;51.986;4.468;2022-09-03T03:13:43;101119.84;;;17.71;53.91
69528;BME280;57136;51.986;4.468;2022-09-03T03:16:08;101124.09;;;17.77;54.05
69528;BME280;57136;51.986;4.468;2022-09-03T03:18:34;101123.34;;;17.72;54.28
69528;BME280;57136;51.986;4.468;2022-09-03T03:21:08;101130.44;;;17.70;54.02
69528;BME280;57136;51.986;4.468;2022-09-03T03:23:34;101130.66;;;17.57;54.63
69528;BME280;57136;51.986;4.468;2022-09-03T03:26:05;101132.41;;;17.57;54.21
69528;BME280;57136;51.986;4.468;2022-09-03T03:28:32;101128.25;;;17.46;54.58
69528;BME280;57136;51.986;4.468;2022-09-03T03:31:04;101122.94;;;17.48;54.36
69528;BME280;57136;51.986;4.468;2022-09-03T03:33:29;101126.41;;;17.51;54.84
69528;BME280;57136;51.986;4.468;2022-09-03T03:35:55;101126.41;;;17.51;54.96
69528;BME280;57136;51.986;4.468;2022-09-03T03:38:20;101127.50;;;17.40;55.69
69528;BME280;57136;51.986;4.468;2022-09-03T03:40:45;101138.06;;;17.40;55.63
69528;BME280;57136;51.986;4.468;2022-09-03T03:43:11;101130.16;;;17.40;55.89
69528;BME280;57136;51.986;4.468;2022-09-03T03:45:36;101140.63;;;17.41;55.58
69528;BME280;57136;51.986;4.468;2022-09-03T03:48:02;101132.91;;;17.33;55.44
69528;BME280;57136;51.986;4.468;2022-09-03T03:50:27;101132.84;;;17.35;55.62
69528;BME280;57136;51.986;4.468;2022-09-03T03:52:52;101139.09;;;17.29;56.16
69528;BME280;57136;51.986;4.468;2022-09-03T03:55:18;101141.84;;;17.23;56.41
69528;BME280;57136;51.986;4.468;2022-09-03T03:57:43;101137.31;;;17.30;56.18
69528;BME280;57136;51.986;4.468;2022-09-03T04:00:09;101144.34;;;17.31;55.69
69528;BME280;57136;51.986;4.468;2022-09-03T04:02:34;101140.81;;;17.32;56.05
69528;BME280;57136;51.986;4.468;2022-09-03T04:05:00;101139.84;;;17.37;55.80
69528;BME280;57136;51.986;4.468;2022-09-03T04:07:25;101135.59;;;17.30;56.00
69528;BME280;57136;51.986;4.468;2022-09-03T04:09:51;101138.22;;;17.30;56.26
69528;BME280;57136;51.986;4.468;2022-09-03T04:12:16;101140.09;;;17.24;56.45
69528;BME280;57136;51.986;4.468;2022-09-03T04:14:43;101137.53;;;17.20;56.38
69528;BME280;57136;51.986;4.468;2022-09-03T04:17:09;101131.31;;;17.23;56.18
69528;BME280;57136;51.986;4.468;2022-09-03T04:19:34;101134.16;;;17.14;56.57
69528;BME280;57136;51.986;4.468;2022-09-03T04:21:59;101135.09;;;17.10;56.42
69528;BME280;57136;51.986;4.468;2022-09-03T04:24:25;101127.00;;;17.19;56.52
69528;BME280;57136;51.986;4.468;2022-09-03T04:26:51;101125.22;;;17.21;56.59
69528;BME280;57136;51.986;4.468;2022-09-03T04:29:18;101128.94;;;17.09;56.68
69528;BME280;57136;51.986;4.468;2022-09-03T04:31:43;101130.69;;;17.10;56.61
69528;BME280;57136;51.986;4.468;2022-09-03T04:34:29;101138.66;;;17.05;56.92
69528;BME280;57136;51.986;4.468;2022-09-03T04:36:54;101130.78;;;17.04;56.52
69528;BME280;57136;51.986;4.468;2022-09-03T04:39:22;101134.38;;;17.00;56.87
69528;BME280;57136;51.986;4.468;2022-09-03T04:41:47;101120.50;;;16.88;57.31
69528;BME280;57136;51.986;4.468;2022-09-03T04:44:12;101132.84;;;16.85;57.70
69528;BME280;57136;51.986;4.468;2022-09-03T04:46:38;101128.53;;;16.81;57.22
69528;BME280;57136;51.986;4.468;2022-09-03T04:49:04;101129.38;;;16.83;57.89
69528;BME280;57136;51.986;4.468;2022-09-03T04:51:31;101128.53;;;16.79;57.86
69528;BME280;57136;51.986;4.468;2022-09-03T04:53:59;101124.91;;;16.86;57.81
69528;BME280;57136;51.986;4.468;2022-09-03T04:56:33;101132.84;;;16.85;57.93
69528;BME280;57136;51.986;4.468;2022-09-03T04:59:02;101131.19;;;16.79;58.47
69528;BME280;57136;51.986;4.468;2022-09-03T05:01:30;101129.56;;;16.72;59.16
69528;BME280;57136;51.986;4.468;2022-09-03T05:03:56;101121.81;;;16.62;59.05
69528;BME280;57136;51.986;4.468;2022-09-03T05:06:22;101127.06;;;16.62;59.46
69528;BME280;57136;51.986;4.468;2022-09-03T05:08:49;101125.28;;;16.63;59.33
69528;BME280;57136;51.986;4.468;2022-09-03T05:11:15;101128.06;;;16.55;59.54
69528;BME280;57136;51.986;4.468;2022-09-03T05:13:41;101126.41;;;16.50;59.87
69528;BME280;57136;51.986;4.468;2022-09-03T05:16:09;101126.34;;;16.53;59.87
69528;BME280;57136;51.986;4.468;2022-09-03T05:18:35;101130.72;;;16.54;59.78
69528;BME280;57136;51.986;4.468;2022-09-03T05:21:06;101134.19;;;16.56;59.81
69528;BME280;57136;51.986;4.468;2022-09-03T05:23:36;101132.34;;;16.61;59.30
69528;BME280;57136;51.986;4.468;2022-09-03T05:26:04;101135.75;;;16.68;59.43
69528;BME280;57136;51.986;4.468;2022-09-03T05:28:34;101137.56;;;16.64;59.69
69528;BME280;57136;51.986;4.468;2022-09-03T05:31:05;101139.28;;;16.65;59.50
69528;BME280;57136;51.986;4.468;2022-09-03T05:33:35;101133.97;;;16.70;59.71
69528;BME280;57136;51.986;4.468;2022-09-03T05:36:04;101135.69;;;16.72;59.52
69528;BME280;57136;51.986;4.468;2022-09-03T05:38:30;101133.09;;;16.69;59.77
69528;BME280;57136;51.986;4.468;2022-09-03T05:41:00;101131.22;;;16.76;59.55
69528;BME280;57136;51.986;4.468;2022-09-03T05:43:31;101139.16;;;16.74;59.15
69528;BME280;57136;51.986;4.468;2022-09-03T05:46:08;101134.59;;;16.86;58.96
69528;BME280;57136;51.986;4.468;2022-09-03T05:48:35;101138.78;;;16.99;58.52
69528;BME280;57136;51.986;4.468;2022-09-03T05:51:06;101136.13;;;16.99;58.09
69528;BME280;57136;51.986;4.468;2022-09-03T05:53:34;101142.09;;;17.09;58.29
69528;BME280;57136;51.986;4.468;2022-09-03T05:56:02;101136.78;;;17.14;58.25
69528;BME280;57136;51.986;4.468;2022-09-03T05:58:32;101133.94;;;17.23;57.79
69528;BME280;57136;51.986;4.468;2022-09-03T06:00:59;101132.91;;;17.32;57.72
69528;BME280;57136;51.986;4.468;2022-09-03T06:03:24;101145.16;;;17.34;57.57
69528;BME280;57136;51.986;4.468;2022-09-03T06:05:51;101137.09;;;17.42;57.13
69528;BME280;57136;51.986;4.468;2022-09-03T06:08:17;101135.19;;;17.50;57.02
69528;BME280;57136;51.986;4.468;2022-09-03T06:10:42;101147.38;;;17.56;56.91
69528;BME280;57136;51.986;4.468;2022-09-03T06:13:08;101148.22;;;17.58;56.88
69528;BME280;57136;51.986;4.468;2022-09-03T06:15:33;101148.94;;;17.66;56.50
69528;BME280;57136;51.986;4.468;2022-09-03T06:17:58;101146.88;;;17.82;56.06
69528;BME280;57136;51.986;4.468;2022-09-03T06:20:24;101148.44;;;17.91;56.50
69528;BME280;57136;51.986;4.468;2022-09-03T06:22:52;101144.72;;;18.02;55.94
69528;BME280;57136;51.986;4.468;2022-09-03T06:25:18;101146.19;;;18.14;55.67
69528;BME280;57136;51.986;4.468;2022-09-03T06:27:44;101146.31;;;18.09;55.86
69528;BME280;57136;51.986;4.468;2022-09-03T06:30:10;101147.03;;;18.17;55.34
69528;BME280;57136;51.986;4.468;2022-09-03T06:32:46;101145.94;;;18.26;55.25
69528;BME280;57136;51.986;4.468;2022-09-03T06:35:11;101154.44;;;18.39;55.83
69528;BME280;57136;51.986;4.468;2022-09-03T06:37:41;101148.72;;;18.57;54.52
69528;BME280;57136;51.986;4.468;2022-09-03T06:40:08;101149.53;;;18.60;55.17
69528;BME280;57136;51.986;4.468;2022-09-03T06:42:39;101153.59;;;18.75;53.50
69528;BME280;57136;51.986;4.468;2022-09-03T06:45:07;101158.56;;;18.87;52.89
69528;BME280;57136;51.986;4.468;2022-09-03T06:47:32;101161.97;;;18.92;52.59
69528;BME280;57136;51.986;4.468;2022-09-03T06:49:58;101165.19;;;19.05;51.96
69528;BME280;57136;51.986;4.468;2022-09-03T06:52:25;101159.78;;;19.10;52.37
69528;BME280;57136;51.986;4.468;2022-09-03T06:54:51;101157.09;;;19.11;51.68
69528;BME280;57136;51.986;4.468;2022-09-03T06:57:19;101166.50;;;19.23;51.68
69528;BME280;57136;51.986;4.468;2022-09-03T06:59:44;101163.56;;;19.34;52.10
69528;BME280;57136;51.986;4.468;2022-09-03T07:02:10;101167.13;;;19.31;51.11
69528;BME280;57136;51.986;4.468;2022-09-03T07:04:35;101158.91;;;19.42;50.97
69528;BME280;57136;51.986;4.468;2022-09-03T07:07:02;101163.25;;;19.45;51.03
69528;BME280;57136;51.986;4.468;2022-09-03T07:09:27;101165.22;;;19.70;50.64
69528;BME280;57136;51.986;4.468;2022-09-03T07:11:52;101165.00;;;19.77;50.80
69528;BME280;57136;51.986;4.468;2022-09-03T07:14:19;101173.06;;;19.73;51.02
69528;BME280;57136;51.986;4.468;2022-09-03T07:16:47;101166.94;;;20.02;50.39
69528;BME280;57136;51.986;4.468;2022-09-03T07:19:13;101168.91;;;20.26;50.46
69528;BME280;57136;51.986;4.468;2022-09-03T07:21:39;101172.63;;;20.18;49.35
69528;BME280;57136;51.986;4.468;2022-09-03T07:24:06;101169.00;;;20.23;49.45
69528;BME280;57136;51.986;4.468;2022-09-03T07:26:38;101170.19;;;20.41;48.69
69528;BME280;57136;51.986;4.468;2022-09-03T07:29:05;101164.47;;;20.55;48.52
69528;BME280;57136;51.986;4.468;2022-09-03T07:31:37;101167.84;;;20.60;49.59
69528;BME280;57136;51.986;4.468;2022-09-03T07:34:08;101167.31;;;20.77;49.59
69528;BME280;57136;51.986;4.468;2022-09-03T07:36:38;101166.97;;;20.88;48.85
69528;BME280;57136;51.986;4.468;2022-09-03T07:39:07;101174.53;;;20.99;48.45
69528;BME280;57136;51.986;4.468;2022-09-03T07:41:32;101162.31;;;21.20;49.66
69528;BME280;57136;51.986;4.468;2022-09-03T07:43:58;101173.25;;;21.36;48.82
69528;BME280;57136;51.986;4.468;2022-09-03T07:46:31;101170.16;;;21.48;47.07
69528;BME280;57136;51.986;4.468;2022-09-03T07:48:57;101169.16;;;21.51;47.41
69528;BME280;57136;51.986;4.468;2022-09-03T07:51:26;101168.91;;;21.59;46.45
69528;BME280;57136;51.986;4.468;2022-09-03T07:53:55;101176.88;;;21.59;46.14
69528;BME280;57136;51.986;4.468;2022-09-03T07:56:22;101176.00;;;21.58;46.04
69528;BME280;57136;51.986;4.468;2022-09-03T07:58:48;101172.25;;;21.89;45.12
69528;BME280;57136;51.986;4.468;2022-09-03T08:01:16;101174.13;;;22.09;45.82
69528;BME280;57136;51.986;4.468;2022-09-03T08:03:43;101174.69;;;22.18;45.65
69528;BME280;57136;51.986;4.468;2022-09-03T08:06:10;101179.63;;;22.51;44.74
69528;BME280;57136;51.986;4.468;2022-09-03T08:08:37;101184.00;;;22.52;45.54
69528;BME280;57136;51.986;4.468;2022-09-03T08:11:07;101187.47;;;22.54;45.12
69528;BME280;57136;51.986;4.468;2022-09-03T08:13:39;101192.06;;;22.26;45.61
69528;BME280;57136;51.986;4.468;2022-09-03T08:16:06;101192.19;;;22.23;45.24
69528;BME280;57136;51.986;4.468;2022-09-03T08:18:36;101198.78;;;21.89;46.12
69528;BME280;57136;51.986;4.468;2022-09-03T08:21:07;101194.72;;;22.03;47.21
69528;BME280;57136;51.986;4.468;2022-09-03T08:23:36;101202.34;;;22.12;46.95
69528;BME280;57136;51.986;4.468;2022-09-03T08:26:02;101198.44;;;21.98;45.93
69528;BME280;57136;51.986;4.468;2022-09-03T08:28:27;101196.94;;;21.91;46.05
69528;BME280;57136;51.986;4.468;2022-09-03T08:30:53;101207.22;;;22.00;46.13
69528;BME280;57136;51.986;4.468;2022-09-03T08:33:18;101204.22;;;22.32;46.36
69528;BME280;57136;51.986;4.468;2022-09-03T08:38:33;101201.22;;;22.86;45.41
69528;BME280;57136;51.986;4.468;2022-09-03T08:41:10;101197.31;;;22.95;44.48
69528;BME280;57136;51.986;4.468;2022-09-03T08:46:50;101205.41;;;23.95;43.19
69528;BME280;57136;51.986;4.468;2022-09-03T08:49:23;101199.28;;;24.50;43.46
69528;BME280;57136;51.986;4.468;2022-09-03T08:51:51;101193.72;;;25.09;39.71
69528;BME280;57136;51.986;4.468;2022-09-03T08:54:20;101192.63;;;25.31;39.57
69528;BME280;57136;51.986;4.468;2022-09-03T08:56:48;101193.84;;;25.77;38.84
69528;BME280;57136;51.986;4.468;2022-09-03T08:59:14;101195.06;;;26.03;37.68
69528;BME280;57136;51.986;4.468;2022-09-03T09:01:58;101192.59;;;26.16;38.66
69528;BME280;57136;51.986;4.468;2022-09-03T09:04:43;101184.25;;;26.38;38.30
69528;BME280;57136;51.986;4.468;2022-09-03T09:10:19;101192.91;;;26.10;36.88
69528;BME280;57136;51.986;4.468;2022-09-03T09:12:52;101194.22;;;25.69;37.80
69528;BME280;57136;51.986;4.468;2022-09-03T09:15:31;101206.16;;;25.95;37.01
69528;BME280;57136;51.986;4.468;2022-09-03T09:21:10;101205.56;;;27.17;35.95
69528;BME280;57136;51.986;4.468;2022-09-03T09:23:49;101211.88;;;26.85;35.03
69528;BME280;57136;51.986;4.468;2022-09-03T09:26:20;101211.72;;;26.72;35.49
69528;BME280;57136;51.986;4.468;2022-09-03T09:28:54;101208.75;;;26.77;35.41
69528;BME280;57136;51.986;4.468;2022-09-03T09:31:23;101211.91;;;27.00;34.94
69528;BME280;57136;51.986;4.468;2022-09-03T09:33:48;101201.81;;;27.19;35.40
69528;BME280;57136;51.986;4.468;2022-09-03T09:36:16;101209.25;;;28.03;35.58
69528;BME280;57136;51.986;4.468;2022-09-03T09:38:44;101213.28;;;27.95;33.50
69528;BME280;57136;51.986;4.468;2022-09-03T09:41:15;101213.56;;;27.91;34.24
69528;BME280;57136;51.986;4.468;2022-09-03T09:43:42;101211.44;;;28.10;33.39
69528;BME280;57136;51.986;4.468;2022-09-03T09:46:12;101202.91;;;28.60;32.51
69528;BME280;57136;51.986;4.468;2022-09-03T09:48:46;101201.97;;;29.02;32.45
69528;BME280;57136;51.986;4.468;2022-09-03T09:51:24;101192.53;;;28.96;32.57
69528;BME280;57136;51.986;4.468;2022-09-03T09:54:15;101195.13;;;28.43;33.09
69528;BME280;57136;51.986;4.468;2022-09-03T09:56:43;101198.72;;;28.56;34.02
69528;BME280;57136;51.986;4.468;2022-09-03T09:59:10;101194.28;;;29.23;34.71
69528;BME280;57136;51.986;4.468;2022-09-03T10:01:38;101189.78;;;29.23;33.56
69528;BME280;57136;51.986;4.468;2022-09-03T10:04:22;101193.84;;;29.16;32.50
69528;BME280;57136;51.986;4.468;2022-09-03T10:07:00;101184.19;;;29.13;32.25
69528;BME280;57136;51.986;4.468;2022-09-03T10:09:29;101186.78;;;28.47;32.47
69528;BME280;57136;51.986;4.468;2022-09-03T10:14:30;101188.88;;;28.84;36.54
69528;BME280;57136;51.986;4.468;2022-09-03T10:17:10;101185.44;;;28.67;32.78
69528;BME280;57136;51.986;4.468;2022-09-03T10:22:52;101188.44;;;28.63;33.04
69528;BME280;57136;51.986;4.468;2022-09-03T10:25:19;101187.66;;;28.48;32.44
69528;BME280;57136;51.986;4.468;2022-09-03T10:27:45;101186.69;;;28.49;32.98
69528;BME280;57136;51.986;4.468;2022-09-03T10:30:12;101180.06;;;28.27;33.59
69528;BME280;57136;51.986;4.468;2022-09-03T10:33:04;101184.97;;;28.75;33.15
69528;BME280;57136;51.986;4.468;2022-09-03T10:35:38;101193.13;;;28.59;32.41
69528;BME280;57136;51.986;4.468;2022-09-03T10:44:14;101184.97;;;28.48;34.63
69528;BME280;57136;51.986;4.468;2022-09-03T10:47:01;101187.81;;;28.72;32.98
69528;BME280;57136;51.986;4.468;2022-09-03T10:49:34;101186.06;;;28.31;33.16
69528;BME280;57136;51.986;4.468;2022-09-03T10:52:16;101193.41;;;28.41;33.01
69528;BME280;57136;51.986;4.468;2022-09-03T11:00:30;101181.78;;;28.55;33.71
69528;BME280;57136;51.986;4.468;2022-09-03T11:03:26;101186.59;;;28.23;34.18
69528;BME280;57136;51.986;4.468;2022-09-03T11:06:03;101179.28;;;28.52;34.11
69528;BME280;57136;51.986;4.468;2022-09-03T11:08:40;101183.75;;;28.39;32.74
69528;BME280;57136;51.986;4.468;2022-09-03T11:11:25;101182.00;;;27.81;33.65
69528;BME280;57136;51.986;4.468;2022-09-03T11:14:06;101188.69;;;28.45;33.54
69528;BME280;57136;51.986;4.468;2022-09-03T11:16:40;101185.34;;;28.56;33.17
69528;BME280;57136;51.986;4.468;2022-09-03T11:19:15;101194.72;;;29.29;32.67
69528;BME280;57136;51.986;4.468;2022-09-03T11:21:42;101192.78;;;29.70;32.18
69528;BME280;57136;51.986;4.468;2022-09-03T11:24:13;101191.19;;;29.68;31.81
69528;BME280;57136;51.986;4.468;2022-09-03T11:26:44;101189.38;;;30.18;30.45
69528;BME280;57136;51.986;4.468;2022-09-03T11:32:07;101184.38;;;30.01;30.55
69528;BME280;57136;51.986;4.468;2022-09-03T11:34:47;101188.88;;;30.13;29.58
69528;BME280;57136;51.986;4.468;2022-09-03T11:40:03;101188.69;;;30.28;30.77
69528;BME280;57136;51.986;4.468;2022-09-03T11:42:33;101190.25;;;29.69;31.52
69528;BME280;57136;51.986;4.468;2022-09-03T11:45:59;101186.31;;;29.86;31.58
69528;BME280;57136;51.986;4.468;2022-09-03T11:47:56;101180.09;;;29.98;30.51
69528;BME280;57136;51.986;4.468;2022-09-03T11:50:25;101170.03;;;28.71;31.41
69528;BME280;57136;51.986;4.468;2022-09-03T11:52:53;101171.41;;;28.64;32.96
69528;BME280;57136;51.986;4.468;2022-09-03T11:55:30;101174.81;;;28.53;33.28
69528;BME280;57136;51.986;4.468;2022-09-03T11:57:57;101170.75;;;28.73;33.90
69528;BME280;57136;51.986;4.468;2022-09-03T12:00:23;101167.03;;;29.42;33.23
69528;BME280;57136;51.986;4.468;2022-09-03T12:02:55;101172.22;;;30.08;31.50
69528;BME280;57136;51.986;4.468;2022-09-03T12:05:40;101170.44;;;30.20;31.75
69528;BME280;57136;51.986;4.468;2022-09-03T12:16:18;101153.84;;;30.63;30.09
69528;BME280;57136;51.986;4.468;2022-09-03T12:18:47;101166.72;;;31.18;30.29
69528;BME280;57136;51.986;4.468;2022-09-03T12:21:17;101162.91;;;31.66;29.91
69528;BME280;57136;51.986;4.468;2022-09-03T12:23:48;101159.00;;;31.93;28.56
69528;BME280;57136;51.986;4.468;2022-09-03T12:26:19;101161.19;;;32.11;29.26
69528;BME280;57136;51.986;4.468;2022-09-03T12:28:53;101151.16;;;32.02;29.57
69528;BME280;57136;51.986;4.468;2022-09-03T12:31:20;101155.81;;;32.00;27.75
69528;BME280;57136;51.986;4.468;2022-09-03T12:33:58;101158.00;;;32.17;27.81
69528;BME280;57136;51.986;4.468;2022-09-03T12:36:26;101152.78;;;31.93;27.88
69528;BME280;57136;51.986;4.468;2022-09-03T12:39:12;101144.22;;;32.20;28.73
69528;BME280;57136;51.986;4.468;2022-09-03T12:41:37;101143.50;;;32.30;28.54
69528;BME280;57136;51.986;4.468;2022-09-03T12:44:03;101148.69;;;32.10;29.67
69528;BME280;57136;51.986;4.468;2022-09-03T12:46:30;101148.50;;;31.33;28.66
69528;BME280;57136;51.986;4.468;2022-09-03T12:48:59;101143.56;;;30.69;28.38
69528;BME280;57136;51.986;4.468;2022-09-03T12:51:50;101143.81;;;30.66;29.63
69528;BME280;57136;51.986;4.468;2022-09-03T12:54:18;101151.41;;;30.47;30.30
69528;BME280;57136;51.986;4.468;2022-09-03T12:56:53;101143.59;;;30.56;30.76
69528;BME280;57136;51.986;4.468;2022-09-03T12:59:21;101146.84;;;30.37;29.63
69528;BME280;57136;51.986;4.468;2022-09-03T13:01:49;101143.03;;;30.15;29.10
69528;BME280;57136;51.986;4.468;2022-09-03T13:04:18;101138.78;;;30.12;30.94
69528;BME280;57136;51.986;4.468;2022-09-03T13:06:52;101144.09;;;30.25;30.52
69528;BME280;57136;51.986;4.468;2022-09-03T13:09:23;101148.66;;;29.62;30.71
69528;BME280;57136;51.986;4.468;2022-09-03T13:11:50;101141.28;;;29.89;31.64
69528;BME280;57136;51.986;4.468;2022-09-03T13:14:19;101150.75;;;29.82;30.96
69528;BME280;57136;51.986;4.468;2022-09-03T13:27:45;101145.22;;;29.72;29.80
69528;BME280;57136;51.986;4.468;2022-09-03T13:30:19;101145.28;;;29.71;31.74
69528;BME280;57136;51.986;4.468;2022-09-03T13:33:04;101144.88;;;29.64;30.71
69528;BME280;57136;51.986;4.468;2022-09-03T13:35:37;101132.88;;;30.07;28.77
69528;BME280;57136;51.986;4.468;2022-09-03T13:38:06;101143.97;;;30.27;30.65
69528;BME280;57136;51.986;4.468;2022-09-03T13:40:55;101139.69;;;30.24;30.68
69528;BME280;57136;51.986;4.468;2022-09-03T13:43:25;101138.59;;;30.51;29.04
69528;BME280;57136;51.986;4.468;2022-09-03T13:46:02;101138.53;;;30.64;29.60
69528;BME280;57136;51.986;4.468;2022-09-03T13:53:58;101131.97;;;30.19;30.62
69528;BME280;57136;51.986;4.468;2022-09-03T13:56:41;101136.31;;;30.09;30.37
69528;BME280;57136;51.986;4.468;2022-09-03T13:59:18;101140.56;;;30.25;28.70
69528;BME280;57136;51.986;4.468;2022-09-03T14:04:51;101139.91;;;30.45;28.69
69528;BME280;57136;51.986;4.468;2022-09-03T14:10:56;101140.91;;;29.31;29.78
69528;BME280;57136;51.986;4.468;2022-09-03T14:16:23;101142.13;;;29.53;29.28
69528;BME280;57136;51.986;4.468;2022-09-03T14:18:58;101142.00;;;29.03;29.45
69528;BME280;57136;51.986;4.468;2022-09-03T14:21:30;101149.31;;;29.39;30.90
69528;BME280;57136;51.986;4.468;2022-09-03T14:26:53;101141.00;;;29.81;30.06
69528;BME280;57136;51.986;4.468;2022-09-03T14:29:28;101128.38;;;30.08;30.90
69528;BME280;57136;51.986;4.468;2022-09-03T14:40:45;101133.84;;;29.93;31.92
69528;BME280;57136;51.986;4.468;2022-09-03T14:56:44;101139.38;;;28.75;30.75
69528;BME280;57136;51.986;4.468;2022-09-03T14:59:37;101138.31;;;28.78;30.29
69528;BME280;57136;51.986;4.468;2022-09-03T15:07:52;101142.66;;;29.45;30.41
69528;BME280;57136;51.986;4.468;2022-09-03T15:13:15;101147.44;;;28.88;29.79
69528;BME280;57136;51.986;4.468;2022-09-03T15:18:25;101139.31;;;29.03;30.83
69528;BME280;57136;51.986;4.468;2022-09-03T15:23:42;101142.97;;;29.02;30.68
69528;BME280;57136;51.986;4.468;2022-09-03T15:26:41;101144.66;;;28.90;29.92
69528;BME280;57136;51.986;4.468;2022-09-03T15:29:28;101145.66;;;28.74;30.74
69528;BME280;57136;51.986;4.468;2022-09-03T15:34:52;101143.69;;;28.50;30.92
69528;BME280;57136;51.986;4.468;2022-09-03T15:37:35;101147.06;;;28.39;31.29
69528;BME280;57136;51.986;4.468;2022-09-03T15:40:15;101145.59;;;28.48;30.97